Time;durP1;ratioP1;P1;durP2;ratioP2;P2;SDS_P1;SDS_P2;PMS_P1;PMS_P2;Temp;Humidity;BMP_temperature;BMP_pressure;BME280_temperature;BME280_humidity;BME280_pressure;Samples;Min_cycle;Max_cycle;Signal;HPM_P1;HPM_P2
2023/02/25 00:00:09;;;;;;;27.60;25.00;;;;;;;;;;5147578;27;20234;-80
2023/02/25 00:02:37;;;;;;;26.98;24.13;;;;;;;;;;5147200;27;20238;-80
2023/02/25 00:05:05;;;;;;;25.55;23.38;;;;;;;;;;5146697;27;20217;-80
2023/02/25 00:07:33;;;;;;;26.05;23.45;;;;;;;;;;5147115;27;20184;-80
2023/02/25 00:10:00;;;;;;;26.50;23.70;;;;;;;;;;5147473;27;20268;-80
2023/02/25 00:12:28;;;;;;;24.00;22.25;;;;;;;;;;5146345;27;20213;-80
2023/02/25 00:14:57;;;;;;;24.30;22.55;;;;;;;;;;5146535;27;20258;-80
2023/02/25 00:17:24;;;;;;;23.98;22.30;;;;;;;;;;5146501;27;20224;-80
2023/02/25 00:19:51;;;;;;;23.75;22.13;;;;;;;;;;5146199;27;20257;-80
2023/02/25 00:22:18;;;;;;;24.98;23.08;;;;;;;;;;5145749;27;20242;-80
2023/02/25 00:24:45;;;;;;;24.25;22.45;;;;;;;;;;5146579;27;20211;-81
2023/02/25 00:27:12;;;;;;;25.80;23.33;;;;;;;;;;5146534;27;20218;-80
2023/02/25 00:29:39;;;;;;;23.83;21.63;;;;;;;;;;5146974;27;20196;-80
2023/02/25 00:32:07;;;;;;;22.60;21.00;;;;;;;;;;5146169;27;20197;-80
2023/02/25 00:34:34;;;;;;;23.63;21.58;;;;;;;;;;5147253;27;20213;-80
2023/02/25 00:37:01;;;;;;;24.23;21.95;;;;;;;;;;5145802;27;20243;-80
2023/02/25 00:39:41;;;;;;;23.58;21.80;;;;;;;;;;5146599;27;20208;-80
2023/02/25 00:42:08;;;;;;;20.05;19.10;;;;;;;;;;5146349;27;20189;-80
2023/02/25 00:44:36;;;;;;;22.75;20.88;;;;;;;;;;5146572;27;20254;-80
2023/02/25 00:47:03;;;;;;;22.25;20.42;;;;;;;;;;5147033;27;20271;-81
2023/02/25 00:49:31;;;;;;;31.05;20.60;;;;;;;;;;5147084;27;20204;-80
2023/02/25 00:51:58;;;;;;;24.90;22.55;;;;;;;;;;5146322;27;20234;-80
2023/02/25 00:54:25;;;;;;;19.98;18.75;;;;;;;;;;5146136;27;20201;-79
2023/02/25 00:56:52;;;;;;;21.60;19.75;;;;;;;;;;5146161;27;20250;-80
2023/02/25 00:59:19;;;;;;;21.77;19.92;;;;;;;;;;5146188;27;20204;-80
2023/02/25 01:01:46;;;;;;;20.55;19.45;;;;;;;;;;5145694;27;20226;-79
2023/02/25 01:04:13;;;;;;;22.42;20.73;;;;;;;;;;5146869;27;20601;-80
2023/02/25 01:06:42;;;;;;;19.65;18.70;;;;;;;;;;5145118;27;20220;-80
2023/02/25 01:09:12;;;;;;;20.35;19.45;;;;;;;;;;5145969;27;20253;-80
2023/02/25 01:11:40;;;;;;;20.88;18.88;;;;;;;;;;5145269;27;20715;-80
2023/02/25 01:14:08;;;;;;;20.75;19.17;;;;;;;;;;5145200;27;20220;-80
2023/02/25 01:16:35;;;;;;;21.10;19.63;;;;;;;;;;5145600;27;20274;-80
2023/02/25 01:19:04;;;;;;;22.35;20.33;;;;;;;;;;5144940;27;20201;-80
2023/02/25 01:21:32;;;;;;;21.42;19.90;;;;;;;;;;5145434;27;20233;-80
2023/02/25 01:24:03;;;;;;;22.42;20.13;;;;;;;;;;5145377;27;20203;-80
2023/02/25 01:26:31;;;;;;;21.73;19.83;;;;;;;;;;5144633;27;20216;-80
2023/02/25 01:28:58;;;;;;;22.30;20.38;;;;;;;;;;5145477;27;20278;-80
2023/02/25 01:31:27;;;;;;;22.45;20.85;;;;;;;;;;5144619;27;20207;-80
2023/02/25 01:33:55;;;;;;;20.40;19.17;;;;;;;;;;5145423;27;20208;-80
2023/02/25 01:36:21;;;;;;;22.25;20.45;;;;;;;;;;5145065;27;20628;-79
2023/02/25 01:38:48;;;;;;;21.25;19.52;;;;;;;;;;5144707;27;20269;-80
2023/02/25 01:41:17;;;;;;;22.45;19.08;;;;;;;;;;5144965;27;20258;-80
2023/02/25 01:43:44;;;;;;;20.73;19.02;;;;;;;;;;5145260;27;20205;-80
2023/02/25 01:46:11;;;;;;;23.98;18.95;;;;;;;;;;5144449;27;20238;-80
2023/02/25 01:48:40;;;;;;;23.65;19.50;;;;;;;;;;5145337;27;20645;-80
2023/02/25 01:51:09;;;;;;;20.00;18.85;;;;;;;;;;5145628;27;20212;-80
2023/02/25 01:53:39;;;;;;;20.05;18.75;;;;;;;;;;5143327;27;20208;-80
2023/02/25 01:56:07;;;;;;;19.65;18.33;;;;;;;;;;5144882;27;20225;-79
2023/02/25 01:58:35;;;;;;;18.70;17.70;;;;;;;;;;5144987;27;20201;-80
2023/02/25 02:01:02;;;;;;;21.98;20.35;;;;;;;;;;5144481;27;20227;-80
2023/02/25 02:03:35;;;;;;;19.35;18.05;;;;;;;;;;5143934;27;20209;-80
2023/02/25 02:06:05;;;;;;;19.35;18.13;;;;;;;;;;5144710;27;20232;-80
2023/02/25 02:08:33;;;;;;;19.27;17.83;;;;;;;;;;5144800;27;20204;-80
2023/02/25 02:11:01;;;;;;;20.67;18.92;;;;;;;;;;5144731;27;20229;-80
2023/02/25 02:13:28;;;;;;;20.85;19.13;;;;;;;;;;5143809;27;20279;-80
2023/02/25 02:16:03;;;;;;;19.80;18.40;;;;;;;;;;5143435;27;20242;-80
2023/02/25 02:18:33;;;;;;;19.88;18.45;;;;;;;;;;5144419;28;20242;-80
2023/02/25 02:21:03;;;;;;;19.80;18.25;;;;;;;;;;5144973;28;20230;-80
2023/02/25 02:23:45;;;;;;;22.40;19.48;;;;;;;;;;5143574;28;20612;-80
2023/02/25 02:26:45;;;;;;;19.77;18.13;;;;;;;;;;5141024;28;20250;-79
2023/02/25 02:29:20;;;;;;;20.52;18.52;;;;;;;;;;5144206;28;20233;-79
2023/02/25 02:32:07;;;;;;;22.65;20.38;;;;;;;;;;5143376;28;20261;-79
2023/02/25 02:34:39;;;;;;;19.30;17.65;;;;;;;;;;5144317;28;20186;-79
2023/02/25 02:37:08;;;;;;;21.38;19.15;;;;;;;;;;5145285;27;20245;-79
2023/02/25 02:39:43;;;;;;;19.45;17.60;;;;;;;;;;5147513;27;20243;-79
2023/02/25 02:42:13;;;;;;;20.85;18.90;;;;;;;;;;5147853;27;20211;-80
2023/02/25 02:44:44;;;;;;;26.42;19.40;;;;;;;;;;5148192;27;20203;-79
2023/02/25 02:47:15;;;;;;;18.67;17.52;;;;;;;;;;5148543;27;20212;-79
2023/02/25 02:49:45;;;;;;;19.27;17.88;;;;;;;;;;5148238;27;20216;-79
2023/02/25 02:52:15;;;;;;;20.95;18.80;;;;;;;;;;5148300;27;20204;-80
2023/02/25 02:54:44;;;;;;;18.80;17.50;;;;;;;;;;5147202;27;20205;-80
2023/02/25 02:57:13;;;;;;;20.70;18.75;;;;;;;;;;5147784;27;20225;-79
2023/02/25 02:59:43;;;;;;;20.00;18.10;;;;;;;;;;5147856;27;20219;-80
2023/02/25 03:02:12;;;;;;;19.52;18.25;;;;;;;;;;5147770;27;20254;-80
2023/02/25 03:04:43;;;;;;;21.20;19.02;;;;;;;;;;5148692;27;20595;-80
2023/02/25 03:07:12;;;;;;;19.48;17.92;;;;;;;;;;5146951;27;20273;-80
2023/02/25 03:09:41;;;;;;;19.38;18.00;;;;;;;;;;5148292;27;20250;-80
2023/02/25 03:12:08;;;;;;;19.88;18.58;;;;;;;;;;5147164;27;20204;-80
2023/02/25 03:14:37;;;;;;;20.45;18.70;;;;;;;;;;5146491;27;20189;-80
2023/02/25 03:17:05;;;;;;;18.80;17.52;;;;;;;;;;5147122;27;20232;-80
2023/02/25 03:19:35;;;;;;;20.25;18.55;;;;;;;;;;5148001;27;20190;-80
2023/02/25 03:22:06;;;;;;;20.60;18.85;;;;;;;;;;5146723;27;20201;-79
2023/02/25 03:24:35;;;;;;;19.23;17.75;;;;;;;;;;5146071;27;20208;-79
2023/02/25 03:27:06;;;;;;;18.10;17.02;;;;;;;;;;5146638;27;20238;-80
2023/02/25 03:29:33;;;;;;;20.30;18.30;;;;;;;;;;5146624;27;20189;-80
2023/02/25 03:32:04;;;;;;;18.80;17.25;;;;;;;;;;5146749;27;20204;-80
2023/02/25 03:34:33;;;;;;;19.45;17.73;;;;;;;;;;5148237;27;20181;-80
2023/02/25 03:37:02;;;;;;;19.17;17.90;;;;;;;;;;5146195;27;20261;-80
2023/02/25 03:39:32;;;;;;;23.17;18.60;;;;;;;;;;5146494;27;20205;-80
2023/02/25 03:42:02;;;;;;;19.80;17.95;;;;;;;;;;5146610;27;20236;-80
2023/02/25 03:44:32;;;;;;;19.75;17.73;;;;;;;;;;5147372;27;20212;-80
2023/02/25 03:47:00;;;;;;;19.10;17.70;;;;;;;;;;5145240;27;20221;-79
2023/02/25 03:49:29;;;;;;;18.02;17.02;;;;;;;;;;5146079;27;20197;-80
2023/02/25 03:51:57;;;;;;;19.50;18.05;;;;;;;;;;5145924;27;20206;-79
2023/02/25 03:54:24;;;;;;;18.67;17.40;;;;;;;;;;5146278;27;20303;-79
2023/02/25 03:56:52;;;;;;;20.75;18.63;;;;;;;;;;5145513;27;20225;-82
2023/02/25 03:59:22;;;;;;;20.10;18.55;;;;;;;;;;5145346;27;20246;-80
2023/02/25 04:01:50;;;;;;;18.65;17.25;;;;;;;;;;5146366;27;20305;-80
2023/02/25 04:04:17;;;;;;;18.33;16.98;;;;;;;;;;5146646;27;20200;-80
2023/02/25 04:06:44;;;;;;;19.33;17.58;;;;;;;;;;5145775;27;20289;-79
2023/02/25 04:09:11;;;;;;;18.10;16.50;;;;;;;;;;5146271;27;20202;-79
2023/02/25 04:11:38;;;;;;;17.80;16.60;;;;;;;;;;5146371;27;20238;-80
2023/02/25 04:14:07;;;;;;;20.45;18.45;;;;;;;;;;5147150;27;20262;-80
2023/02/25 04:16:34;;;;;;;20.00;18.10;;;;;;;;;;5147057;27;20242;-80
2023/02/25 04:19:01;;;;;;;18.80;17.40;;;;;;;;;;5147745;27;20201;-80
2023/02/25 04:21:29;;;;;;;29.95;16.92;;;;;;;;;;5147442;27;20240;-80
2023/02/25 04:23:57;;;;;;;19.48;17.80;;;;;;;;;;5146847;27;20209;-80
2023/02/25 04:26:24;;;;;;;18.92;17.55;;;;;;;;;;5146621;27;20225;-80
2023/02/25 04:28:51;;;;;;;19.25;17.40;;;;;;;;;;5147766;27;20201;-80
2023/02/25 04:31:20;;;;;;;19.70;18.10;;;;;;;;;;5148219;27;20197;-81
2023/02/25 04:33:48;;;;;;;19.48;17.85;;;;;;;;;;5147147;27;20258;-80
2023/02/25 04:36:22;;;;;;;24.27;18.15;;;;;;;;;;5146554;27;20217;-81
2023/02/25 04:38:49;;;;;;;20.65;18.77;;;;;;;;;;5147071;27;20224;-80
2023/02/25 04:41:16;;;;;;;21.20;18.98;;;;;;;;;;5147412;27;20201;-81
2023/02/25 04:43:44;;;;;;;21.52;19.85;;;;;;;;;;5146852;27;20209;-81
2023/02/25 04:46:11;;;;;;;21.40;19.90;;;;;;;;;;5146467;27;20232;-80
2023/02/25 04:48:39;;;;;;;20.52;19.08;;;;;;;;;;5132031;27;20230;-80
2023/02/25 04:51:06;;;;;;;22.10;20.48;;;;;;;;;;5147016;27;20258;-80
2023/02/25 04:53:33;;;;;;;45.70;38.95;;;;;;;;;;5145650;27;20201;-80
2023/02/25 04:56:02;;;;;;;21.95;20.45;;;;;;;;;;5146996;27;20242;-80
2023/02/25 04:58:29;;;;;;;23.65;21.50;;;;;;;;;;5147386;27;20225;-80
2023/02/25 05:00:56;;;;;;;36.22;32.45;;;;;;;;;;5146354;27;20193;-81
2023/02/25 05:03:24;;;;;;;20.40;19.35;;;;;;;;;;5146588;27;20202;-81
2023/02/25 05:05:52;;;;;;;37.28;31.42;;;;;;;;;;5145586;27;20244;-80
2023/02/25 05:08:19;;;;;;;54.42;45.03;;;;;;;;;;5145245;27;20215;-80
2023/02/25 05:10:46;;;;;;;21.52;20.13;;;;;;;;;;5145217;27;20190;-79
2023/02/25 05:13:13;;;;;;;23.92;22.02;;;;;;;;;;5144121;27;20254;-80
2023/02/25 05:15:40;;;;;;;21.55;20.38;;;;;;;;;;5144047;27;20225;-80
2023/02/25 05:18:07;;;;;;;21.80;20.42;;;;;;;;;;5143875;27;20220;-80
2023/02/25 05:20:35;;;;;;;21.42;19.92;;;;;;;;;;5143358;27;20234;-80
2023/02/25 05:23:03;;;;;;;22.35;21.05;;;;;;;;;;5143939;27;20250;-79
2023/02/25 05:25:32;;;;;;;23.02;20.83;;;;;;;;;;5144131;27;20210;-80
2023/02/25 05:27:59;;;;;;;18.80;17.80;;;;;;;;;;5144867;27;20206;-79
2023/02/25 05:30:26;;;;;;;22.05;20.23;;;;;;;;;;5144182;27;20230;-79
2023/02/25 05:32:53;;;;;;;20.27;18.98;;;;;;;;;;5144466;27;20201;-79
2023/02/25 05:35:20;;;;;;;23.13;21.52;;;;;;;;;;5143432;27;20721;-79
2023/02/25 05:37:47;;;;;;;21.65;20.45;;;;;;;;;;5144039;27;20363;-80
2023/02/25 05:40:15;;;;;;;22.42;20.83;;;;;;;;;;5144083;27;20200;-79
2023/02/25 05:42:42;;;;;;;22.52;20.92;;;;;;;;;;5143784;27;20205;-80
2023/02/25 05:45:10;;;;;;;22.88;21.15;;;;;;;;;;5144198;27;20285;-80
2023/02/25 05:47:37;;;;;;;24.02;21.77;;;;;;;;;;5144468;27;20290;-79
2023/02/25 05:50:05;;;;;;;20.25;19.10;;;;;;;;;;5144729;27;20261;-79
2023/02/25 05:52:32;;;;;;;21.92;20.20;;;;;;;;;;5143957;27;20559;-80
2023/02/25 05:54:59;;;;;;;21.45;20.15;;;;;;;;;;5143030;27;20226;-80
2023/02/25 05:57:27;;;;;;;23.55;21.38;;;;;;;;;;5143427;27;20277;-79
2023/02/25 05:59:54;;;;;;;20.45;19.25;;;;;;;;;;5143518;27;20204;-80
2023/02/25 06:02:21;;;;;;;22.00;20.52;;;;;;;;;;5143019;27;20625;-79
2023/02/25 06:04:48;;;;;;;21.27;19.88;;;;;;;;;;5145782;27;20203;-80
2023/02/25 06:07:15;;;;;;;22.02;20.67;;;;;;;;;;5145210;27;20209;-80
2023/02/25 06:09:42;;;;;;;22.42;20.77;;;;;;;;;;5145433;27;20201;-80
2023/02/25 06:12:09;;;;;;;21.88;20.23;;;;;;;;;;5144575;27;20669;-80
2023/02/25 06:14:38;;;;;;;22.35;20.90;;;;;;;;;;5144964;27;20201;-80
2023/02/25 06:17:05;;;;;;;22.13;20.92;;;;;;;;;;5145840;28;20703;-80
2023/02/25 06:19:32;;;;;;;22.10;20.33;;;;;;;;;;5145330;28;20293;-80
2023/02/25 06:21:58;;;;;;;25.30;23.13;;;;;;;;;;5144712;28;20254;-80
2023/02/25 06:24:25;;;;;;;23.92;22.30;;;;;;;;;;5144232;27;20576;-80
2023/02/25 06:26:52;;;;;;;22.83;21.33;;;;;;;;;;5145793;28;20246;-80
2023/02/25 06:29:20;;;;;;;23.38;21.55;;;;;;;;;;5145731;28;20201;-80
2023/02/25 06:31:48;;;;;;;23.13;21.63;;;;;;;;;;5145293;28;20192;-80
2023/02/25 06:34:15;;;;;;;23.77;21.55;;;;;;;;;;5145827;28;20696;-80
2023/02/25 06:36:42;;;;;;;22.33;20.90;;;;;;;;;;5145175;27;20287;-80
2023/02/25 06:39:10;;;;;;;23.23;21.70;;;;;;;;;;5144666;28;20221;-80
2023/02/25 06:41:37;;;;;;;21.52;20.30;;;;;;;;;;5144548;28;20219;-80
2023/02/25 06:44:05;;;;;;;22.83;21.13;;;;;;;;;;5139480;28;20200;-77
2023/02/25 06:46:32;;;;;;;22.63;21.08;;;;;;;;;;5133679;28;20666;-78
2023/02/25 06:49:00;;;;;;;21.92;20.48;;;;;;;;;;5134682;28;20561;-78
2023/02/25 06:51:27;;;;;;;21.40;20.10;;;;;;;;;;5133940;28;20273;-78
2023/02/25 06:53:54;;;;;;;22.30;20.85;;;;;;;;;;5133968;28;20253;-78
2023/02/25 06:56:22;;;;;;;22.35;20.85;;;;;;;;;;5134170;28;20221;-77
2023/02/25 06:58:51;;;;;;;23.48;21.52;;;;;;;;;;5134332;28;20300;-77
2023/02/25 07:01:18;;;;;;;22.00;20.60;;;;;;;;;;5133916;28;20212;-79
2023/02/25 07:03:45;;;;;;;22.88;21.33;;;;;;;;;;5134154;28;20254;-77
2023/02/25 07:06:14;;;;;;;22.02;20.52;;;;;;;;;;5133630;27;20218;-79
2023/02/25 07:08:41;;;;;;;21.30;20.00;;;;;;;;;;5134394;28;20204;-77
2023/02/25 07:11:12;;;;;;;21.10;20.00;;;;;;;;;;5134359;28;20246;-77
2023/02/25 07:13:42;;;;;;;22.70;20.58;;;;;;;;;;5133594;28;20267;-78
2023/02/25 07:16:09;;;;;;;23.52;21.25;;;;;;;;;;5133440;27;20235;-78
2023/02/25 07:18:36;;;;;;;22.05;20.33;;;;;;;;;;5133508;28;20265;-78
2023/02/25 07:21:03;;;;;;;21.48;19.95;;;;;;;;;;5133701;28;20197;-78
2023/02/25 07:23:31;;;;;;;21.60;20.35;;;;;;;;;;5135244;27;20257;-78
2023/02/25 07:25:58;;;;;;;20.17;19.02;;;;;;;;;;5137318;27;20224;-78
2023/02/25 07:28:25;;;;;;;20.30;19.10;;;;;;;;;;5137881;27;20201;-78
2023/02/25 07:30:52;;;;;;;19.58;18.10;;;;;;;;;;5137719;27;20208;-78
2023/02/25 07:33:21;;;;;;;20.13;18.90;;;;;;;;;;5136122;27;20213;-78
2023/02/25 07:35:48;;;;;;;20.50;19.30;;;;;;;;;;5137461;27;20274;-78
2023/02/25 07:38:15;;;;;;;19.33;18.33;;;;;;;;;;5136984;27;20275;-78
2023/02/25 07:40:43;;;;;;;20.02;18.75;;;;;;;;;;5137542;27;20216;-78
2023/02/25 07:43:10;;;;;;;20.83;19.52;;;;;;;;;;5137050;27;20209;-78
2023/02/25 07:45:37;;;;;;;19.38;18.27;;;;;;;;;;5136573;27;20631;-78
2023/02/25 07:48:05;;;;;;;19.02;17.75;;;;;;;;;;5137292;27;20258;-78
2023/02/25 07:50:32;;;;;;;19.15;18.05;;;;;;;;;;5137481;27;20609;-78
2023/02/25 07:52:58;;;;;;;19.25;18.05;;;;;;;;;;5136748;27;20201;-77
2023/02/25 07:55:26;;;;;;;19.02;17.77;;;;;;;;;;5137051;27;20270;-78
2023/02/25 07:57:54;;;;;;;18.10;17.15;;;;;;;;;;5137107;27;20201;-78
2023/02/25 08:00:21;;;;;;;18.77;17.55;;;;;;;;;;5137186;27;20203;-77
2023/02/25 08:02:48;;;;;;;17.98;16.85;;;;;;;;;;5136315;27;20258;-77
2023/02/25 08:05:21;;;;;;;18.02;16.67;;;;;;;;;;5137134;27;20225;-78
2023/02/25 08:07:48;;;;;;;19.38;18.20;;;;;;;;;;5137331;27;20196;-78
2023/02/25 08:10:15;;;;;;;17.90;16.90;;;;;;;;;;5136954;27;20255;-78
2023/02/25 08:12:42;;;;;;;18.10;17.00;;;;;;;;;;5136341;27;20266;-78
2023/02/25 08:15:12;;;;;;;18.92;17.73;;;;;;;;;;5136823;27;20257;-78
2023/02/25 08:17:39;;;;;;;18.58;17.48;;;;;;;;;;5136715;27;20246;-78
2023/02/25 08:20:07;;;;;;;18.30;17.15;;;;;;;;;;5136486;27;20270;-78
2023/02/25 08:22:34;;;;;;;18.60;17.45;;;;;;;;;;5135830;27;20201;-77
2023/02/25 08:25:01;;;;;;;18.00;16.90;;;;;;;;;;5136516;27;20197;-77
2023/02/25 08:27:28;;;;;;;18.55;17.45;;;;;;;;;;5136386;27;20254;-78
2023/02/25 08:29:55;;;;;;;18.92;17.75;;;;;;;;;;5136382;27;20242;-77
2023/02/25 08:32:26;;;;;;;19.30;18.10;;;;;;;;;;5135515;27;20284;-78
2023/02/25 08:34:53;;;;;;;18.30;17.30;;;;;;;;;;5136356;27;20197;-77
2023/02/25 08:37:21;;;;;;;18.70;17.50;;;;;;;;;;5136030;27;20253;-77
2023/02/25 08:39:48;;;;;;;18.38;17.17;;;;;;;;;;5136411;27;20217;-77
2023/02/25 08:42:17;;;;;;;18.77;17.02;;;;;;;;;;5137727;27;20205;-78
2023/02/25 08:44:44;;;;;;;17.75;16.65;;;;;;;;;;5137879;27;20208;-81
2023/02/25 08:47:11;;;;;;;19.77;18.10;;;;;;;;;;5136379;27;20245;-78
2023/02/25 08:49:40;;;;;;;17.95;16.95;;;;;;;;;;5136421;27;20557;-78
2023/02/25 08:52:10;;;;;;;18.15;17.15;;;;;;;;;;5135757;27;20200;-78
2023/02/25 08:54:38;;;;;;;18.80;17.70;;;;;;;;;;5136338;27;20202;-78
2023/02/25 08:57:05;;;;;;;18.48;17.27;;;;;;;;;;5136068;27;20709;-79
2023/02/25 08:59:34;;;;;;;20.00;18.33;;;;;;;;;;5135503;27;20225;-78
2023/02/25 09:02:01;;;;;;;18.33;17.33;;;;;;;;;;5134730;27;20700;-78
2023/02/25 09:04:29;;;;;;;18.63;17.60;;;;;;;;;;5134272;27;20650;-77
2023/02/25 09:06:57;;;;;;;18.80;17.58;;;;;;;;;;5135661;27;20255;-78
2023/02/25 09:09:25;;;;;;;19.80;18.40;;;;;;;;;;5135858;27;20242;-78
2023/02/25 09:11:52;;;;;;;20.65;19.13;;;;;;;;;;5134972;27;20543;-78
2023/02/25 09:14:19;;;;;;;20.45;19.25;;;;;;;;;;5134818;27;20257;-79
2023/02/25 09:16:46;;;;;;;20.67;19.08;;;;;;;;;;5135969;27;20286;-79
2023/02/25 09:19:16;;;;;;;20.33;19.13;;;;;;;;;;5135680;27;20217;-79
2023/02/25 09:21:43;;;;;;;20.10;19.02;;;;;;;;;;5135320;27;20209;-79
2023/02/25 09:24:11;;;;;;;19.40;18.20;;;;;;;;;;5135980;27;20205;-79
2023/02/25 09:26:38;;;;;;;20.70;19.20;;;;;;;;;;5134918;27;20229;-79
2023/02/25 09:29:07;;;;;;;19.65;18.52;;;;;;;;;;5135707;27;20208;-78
2023/02/25 09:31:36;;;;;;;20.52;19.20;;;;;;;;;;5134718;27;20258;-78
2023/02/25 09:34:05;;;;;;;21.55;20.38;;;;;;;;;;5135315;27;20244;-78
2023/02/25 09:36:32;;;;;;;21.85;20.50;;;;;;;;;;5135211;27;20253;-78
2023/02/25 09:39:00;;;;;;;21.15;20.05;;;;;;;;;;5134345;27;20268;-79
2023/02/25 09:41:30;;;;;;;21.33;20.02;;;;;;;;;;5134727;27;20732;-78
2023/02/25 09:44:04;;;;;;;23.02;21.35;;;;;;;;;;5134536;27;20654;-78
2023/02/25 09:46:32;;;;;;;21.30;20.15;;;;;;;;;;5134798;27;20221;-78
2023/02/25 09:49:01;;;;;;;19.70;18.40;;;;;;;;;;5134718;27;20201;-78
2023/02/25 09:51:31;;;;;;;19.95;18.75;;;;;;;;;;5134488;27;20270;-79
2023/02/25 09:54:02;;;;;;;20.55;19.25;;;;;;;;;;5135419;27;20253;-77
2023/02/25 09:56:31;;;;;;;22.52;20.50;;;;;;;;;;5135021;27;20624;-78
2023/02/25 09:58:58;;;;;;;21.27;19.88;;;;;;;;;;5134935;27;20277;-78
2023/02/25 10:01:33;;;;;;;21.33;19.92;;;;;;;;;;5134044;27;20673;-79
2023/02/25 10:04:03;;;;;;;20.85;19.45;;;;;;;;;;5134830;27;20581;-78
2023/02/25 10:06:33;;;;;;;21.85;20.55;;;;;;;;;;5135107;27;20221;-78
2023/02/25 10:09:04;;;;;;;21.58;20.33;;;;;;;;;;5135130;27;20188;-78
2023/02/25 10:11:38;;;;;;;21.95;20.55;;;;;;;;;;5134561;27;20189;-78
2023/02/25 10:14:11;;;;;;;23.00;21.50;;;;;;;;;;5134047;27;20629;-78
2023/02/25 10:16:43;;;;;;;22.00;20.70;;;;;;;;;;5134812;27;20274;-77
2023/02/25 10:19:14;;;;;;;21.10;19.90;;;;;;;;;;5134661;28;20213;-77
2023/02/25 10:21:48;;;;;;;23.55;21.55;;;;;;;;;;5134265;28;20189;-79
2023/02/25 10:24:20;;;;;;;22.50;20.88;;;;;;;;;;5134887;28;20233;-79
2023/02/25 10:26:51;;;;;;;23.90;22.30;;;;;;;;;;5134722;28;20282;-78
2023/02/25 10:29:23;;;;;;;21.33;20.13;;;;;;;;;;5135949;28;20262;-78
2023/02/25 10:31:52;;;;;;;22.55;20.95;;;;;;;;;;5138652;28;20182;-80
2023/02/25 10:34:21;;;;;;;22.33;20.90;;;;;;;;;;5136621;28;20201;-78
2023/02/25 10:36:53;;;;;;;21.33;19.85;;;;;;;;;;5134025;27;20628;-79
2023/02/25 10:39:20;;;;;;;21.20;19.92;;;;;;;;;;5134851;28;20209;-80
2023/02/25 10:41:48;;;;;;;21.33;19.85;;;;;;;;;;5134576;28;20560;-78
2023/02/25 10:44:15;;;;;;;21.48;20.02;;;;;;;;;;5134389;28;20200;-78
2023/02/25 10:46:46;;;;;;;21.30;20.08;;;;;;;;;;5134440;28;20221;-78
2023/02/25 10:49:16;;;;;;;22.38;20.55;;;;;;;;;;5134427;28;20231;-78
2023/02/25 10:51:57;;;;;;;22.48;20.77;;;;;;;;;;5133486;27;20247;-78
2023/02/25 10:54:25;;;;;;;21.90;20.20;;;;;;;;;;5135038;28;20195;-77
2023/02/25 10:56:53;;;;;;;21.90;20.38;;;;;;;;;;5134760;27;20229;-76
2023/02/25 10:59:28;;;;;;;22.02;20.65;;;;;;;;;;5140985;27;20581;-79
2023/02/25 11:01:55;;;;;;;21.30;20.10;;;;;;;;;;5139935;27;20233;-79
2023/02/25 11:04:24;;;;;;;21.30;20.05;;;;;;;;;;5141264;27;20266;-79
2023/02/25 11:06:51;;;;;;;21.48;20.05;;;;;;;;;;5142122;27;20213;-80
2023/02/25 11:09:29;;;;;;;20.98;19.77;;;;;;;;;;5144321;27;20238;-81
2023/02/25 11:11:58;;;;;;;21.33;20.02;;;;;;;;;;5143687;27;20536;-81
2023/02/25 11:14:27;;;;;;;22.63;21.33;;;;;;;;;;5144204;27;20225;-80
2023/02/25 11:17:02;;;;;;;23.73;22.08;;;;;;;;;;5142052;27;20308;-81
2023/02/25 11:19:31;;;;;;;22.85;21.45;;;;;;;;;;5141716;27;20296;-81
2023/02/25 11:21:59;;;;;;;22.45;21.02;;;;;;;;;;5142050;27;20238;-81
2023/02/25 11:24:30;;;;;;;22.10;20.80;;;;;;;;;;5142762;27;20202;-81
2023/02/25 11:26:58;;;;;;;22.33;20.83;;;;;;;;;;5141496;27;20634;-81
2023/02/25 11:29:31;;;;;;;23.17;21.73;;;;;;;;;;5141330;27;20256;-81
2023/02/25 11:31:59;;;;;;;22.85;21.30;;;;;;;;;;5141227;27;20607;-81
2023/02/25 11:34:29;;;;;;;21.15;19.95;;;;;;;;;;5141844;27;20193;-81
2023/02/25 11:36:58;;;;;;;22.60;21.30;;;;;;;;;;5142378;27;20213;-81
2023/02/25 11:39:27;;;;;;;22.08;20.77;;;;;;;;;;5142849;27;20220;-81
2023/02/25 11:41:55;;;;;;;23.27;21.98;;;;;;;;;;5143077;27;20246;-81
2023/02/25 11:44:26;;;;;;;22.17;20.88;;;;;;;;;;5144046;27;20602;-81
2023/02/25 11:46:57;;;;;;;22.70;21.40;;;;;;;;;;5143692;27;20225;-81
2023/02/25 11:49:30;;;;;;;21.92;20.63;;;;;;;;;;5143484;27;20594;-81
2023/02/25 11:52:03;;;;;;;22.17;20.67;;;;;;;;;;5142542;27;20226;-81
2023/02/25 11:54:34;;;;;;;22.23;20.48;;;;;;;;;;5143920;27;20204;-81
2023/02/25 11:57:05;;;;;;;21.92;20.50;;;;;;;;;;5143605;27;20308;-81
2023/02/25 11:59:37;;;;;;;22.48;21.17;;;;;;;;;;5143336;27;20221;-81
2023/02/25 12:02:21;;;;;;;22.80;21.25;;;;;;;;;;5141316;27;20632;-81
2023/02/25 12:05:11;;;;;;;21.77;20.58;;;;;;;;;;5144044;27;20184;-81
2023/02/25 12:07:45;;;;;;;22.25;20.80;;;;;;;;;;5143801;27;20516;-81
2023/02/25 12:10:20;;;;;;;22.95;21.55;;;;;;;;;;5140619;27;20196;-82
2023/02/25 12:13:01;;;;;;;22.52;20.85;;;;;;;;;;5141059;27;20200;-81
2023/02/25 12:15:53;;;;;;;22.42;20.83;;;;;;;;;;5142806;27;20250;-80
2023/02/25 12:18:36;;;;;;;22.52;21.23;;;;;;;;;;5121545;27;20213;-81
2023/02/25 12:21:22;;;;;;;21.88;20.50;;;;;;;;;;5142902;27;20205;-84
2023/02/25 12:24:12;;;;;;;22.38;21.05;;;;;;;;;;5141265;27;20205;-83
2023/02/25 12:26:50;;;;;;;22.42;20.65;;;;;;;;;;5121595;28;20229;-82
2023/02/25 12:29:34;;;;;;;20.63;19.52;;;;;;;;;;5120562;28;20229;-82
2023/02/25 12:32:14;;;;;;;21.52;20.23;;;;;;;;;;5119564;28;20186;-82
2023/02/25 12:34:55;;;;;;;22.58;21.00;;;;;;;;;;5119904;28;20231;-82
2023/02/25 12:37:35;;;;;;;22.33;21.02;;;;;;;;;;5121614;28;20219;-82
2023/02/25 12:40:10;;;;;;;22.42;21.13;;;;;;;;;;5119960;28;20210;-82
2023/02/25 12:42:46;;;;;;;20.85;19.65;;;;;;;;;;5119716;28;20190;-82
2023/02/25 12:45:21;;;;;;;20.98;19.67;;;;;;;;;;5120296;28;20225;-82
2023/02/25 12:47:53;;;;;;;21.05;19.70;;;;;;;;;;5119862;28;20193;-82
2023/02/25 12:50:29;;;;;;;21.40;20.10;;;;;;;;;;5119482;28;20182;-82
2023/02/25 12:53:03;;;;;;;21.25;19.95;;;;;;;;;;5119638;28;20186;-82
2023/02/25 12:55:55;;;;;;;20.63;19.42;;;;;;;;;;5120370;28;20312;-82
2023/02/25 12:58:36;;;;;;;20.95;19.75;;;;;;;;;;5119768;28;20605;-81
2023/02/25 13:01:21;;;;;;;21.50;20.30;;;;;;;;;;5119725;28;20690;-82
2023/02/25 13:04:00;;;;;;;21.23;19.83;;;;;;;;;;5120029;28;20185;-82
2023/02/25 13:06:53;;;;;;;21.25;19.95;;;;;;;;;;5119277;28;20210;-83
2023/02/25 13:09:27;;;;;;;20.83;19.63;;;;;;;;;;5119497;28;20212;-82
2023/02/25 13:12:02;;;;;;;21.08;19.98;;;;;;;;;;5119362;28;20190;-83
2023/02/25 13:14:38;;;;;;;21.00;19.80;;;;;;;;;;5118985;28;20208;-82
2023/02/25 13:17:14;;;;;;;21.55;19.95;;;;;;;;;;5118803;28;20218;-82
2023/02/25 13:19:52;;;;;;;22.10;20.90;;;;;;;;;;5118810;28;20227;-82
2023/02/25 13:22:29;;;;;;;22.25;21.05;;;;;;;;;;5117469;28;20189;-82
2023/02/25 13:25:00;;;;;;;23.92;22.35;;;;;;;;;;5117617;28;20182;-81
2023/02/25 13:27:34;;;;;;;22.27;21.08;;;;;;;;;;5119416;28;20190;-82
2023/02/25 13:30:13;;;;;;;21.30;20.10;;;;;;;;;;5118328;28;20194;-82
2023/02/25 13:32:47;;;;;;;22.70;21.42;;;;;;;;;;5117849;28;20550;-81
2023/02/25 13:35:19;;;;;;;22.58;21.10;;;;;;;;;;5118361;28;20221;-82
2023/02/25 13:37:51;;;;;;;21.95;20.73;;;;;;;;;;5119454;28;20182;-82
2023/02/25 13:40:24;;;;;;;23.40;22.00;;;;;;;;;;5119442;28;20221;-82
2023/02/25 13:43:07;;;;;;;23.10;21.63;;;;;;;;;;5118751;28;20802;-83
2023/02/25 13:45:59;;;;;;;22.27;21.08;;;;;;;;;;5117078;28;20214;-83
2023/02/25 13:48:35;;;;;;;23.15;21.85;;;;;;;;;;5104207;28;20719;-83
2023/02/25 13:51:10;;;;;;;22.73;21.15;;;;;;;;;;5119178;28;20267;-83
2023/02/25 13:53:52;;;;;;;22.80;21.40;;;;;;;;;;5118654;28;20190;-82
2023/02/25 13:56:33;;;;;;;22.70;21.35;;;;;;;;;;5116277;28;20226;-83
2023/02/25 13:59:11;;;;;;;23.08;21.67;;;;;;;;;;5119178;28;20206;-83
2023/02/25 14:01:44;;;;;;;22.10;20.80;;;;;;;;;;5118152;28;20251;-83
2023/02/25 14:04:25;;;;;;;21.85;20.45;;;;;;;;;;5118383;28;20678;-83
2023/02/25 14:07:13;;;;;;;22.48;20.98;;;;;;;;;;5118983;28;20229;-83
2023/02/25 14:09:45;;;;;;;21.90;20.58;;;;;;;;;;5113720;28;20540;-83
2023/02/25 14:12:19;;;;;;;21.40;20.20;;;;;;;;;;5118305;28;20216;-83
2023/02/25 14:15:00;;;;;;;22.15;20.95;;;;;;;;;;5118875;28;20189;-82
2023/02/25 14:17:54;;;;;;;23.00;21.67;;;;;;;;;;5119111;28;20189;-90
2023/02/25 14:20:28;;;;;;;21.83;20.63;;;;;;;;;;5082506;28;20226;-83
2023/02/25 14:22:57;;;;;;;22.02;20.60;;;;;;;;;;5131834;28;20184;-83
2023/02/25 14:25:39;;;;;;;23.15;21.55;;;;;;;;;;5137112;28;20212;-85
2023/02/25 14:28:15;;;;;;;21.75;20.55;;;;;;;;;;5137102;28;20240;-83
2023/02/25 14:30:49;;;;;;;21.90;20.70;;;;;;;;;;5139768;28;20238;-83
2023/02/25 14:33:29;;;;;;;21.65;20.45;;;;;;;;;;5141153;27;20246;-83